Time;durP1;ratioP1;P1;durP2;ratioP2;P2;SDS_P1;SDS_P2;PMS_P1;PMS_P2;Temp;Humidity;BMP_temperature;BMP_pressure;BME280_temperature;BME280_humidity;BME280_pressure;Samples;Min_cycle;Max_cycle;Signal;HPM_P1;HPM_P2
2022/12/04 00:02:31;;;;;;;93.15;38.33;;;;;;;0.49;100.00;101265.80;3666790;80;30599;-83
2022/12/04 00:07:32;;;;;;;92.90;37.23;;;;;;;0.50;100.00;101261.45;3654433;80;98837;-84
2022/12/04 00:12:34;;;;;;;96.27;40.10;;;;;;;0.52;100.00;101260.64;3662078;80;34714;-84
2022/12/04 00:17:34;;;;;;;85.37;37.93;;;;;;;0.54;100.00;101262.50;3652983;80;98618;-83
2022/12/04 00:22:35;;;;;;;85.77;36.10;;;;;;;0.56;100.00;101259.50;3660132;80;34840;-83
2022/12/04 00:27:36;;;;;;;91.37;37.13;;;;;;;0.56;100.00;101252.17;3646895;80;98706;-84
2022/12/04 00:32:37;;;;;;;92.47;37.20;;;;;;;0.49;100.00;101236.83;3669966;80;35493;-83
2022/12/04 00:37:38;;;;;;;86.37;38.33;;;;;;;0.49;100.00;101236.83;3623761;80;98686;-83
2022/12/04 00:42:39;;;;;;;69.43;29.27;;;;;;;0.63;100.00;101255.88;3614520;81;35865;-83
2022/12/04 00:47:40;;;;;;;88.13;33.87;;;;;;;0.67;100.00;101250.16;3603532;80;98645;-83
2022/12/04 00:52:40;;;;;;;81.22;31.37;;;;;;;0.71;100.00;101239.00;3606030;81;35163;-83
2022/12/04 00:57:41;;;;;;;82.97;35.63;;;;;;;0.74;100.00;101237.05;3597046;81;98948;-83
2022/12/04 01:02:42;;;;;;;80.40;33.60;;;;;;;0.74;100.00;101242.46;3610544;81;25850;-83
2022/12/04 01:07:43;;;;;;;88.27;36.50;;;;;;;0.79;100.00;101247.81;3607268;81;98808;-83
2022/12/04 01:12:43;;;;;;;79.73;34.67;;;;;;;0.81;100.00;101248.31;3611001;81;32433;-83
2022/12/04 01:17:44;;;;;;;80.57;32.93;;;;;;;0.74;100.00;101236.50;3634912;80;98950;-83
2022/12/04 01:22:46;;;;;;;83.67;35.10;;;;;;;0.83;100.00;101243.42;3650534;80;32559;-84
2022/12/04 01:27:46;;;;;;;85.37;33.57;;;;;;;0.85;100.00;101248.81;3644345;80;98912;-83
2022/12/04 01:32:47;;;;;;;86.18;32.44;;;;;;;0.84;100.00;101244.50;3656619;80;32461;-83
2022/12/04 01:37:48;;;;;;;82.93;35.10;;;;;;;0.87;100.00;101238.47;3662559;80;98860;-84
2022/12/04 01:42:49;;;;;;;85.50;35.67;;;;;;;0.89;100.00;101243.04;3684661;80;26142;-83
2022/12/04 01:47:54;;;;;;;91.50;34.23;;;;;;;0.91;100.00;101241.40;3686688;80;98515;-83
2022/12/04 01:52:55;;;;;;;82.22;32.83;;;;;;;0.91;100.00;101239.50;3690288;80;32688;-84
2022/12/04 01:57:57;;;;;;;89.10;35.07;;;;;;;0.93;100.00;101244.64;3682651;80;98687;-83
2022/12/04 02:02:58;;;;;;;85.72;34.73;;;;;;;0.95;100.00;101237.83;3681344;80;31149;-84
2022/12/04 02:08:04;;;;;;;92.77;37.40;;;;;;;0.94;100.00;101230.77;3682865;80;98365;-85
2022/12/04 02:13:22;;;;;;;89.37;31.90;;;;;;;0.97;100.00;101229.38;3687917;79;26041;-85
2022/12/04 02:18:46;;;;;;;79.83;30.93;;;;;;;0.98;100.00;101230.98;3684670;80;29963;-85
2022/12/04 02:23:55;;;;;;;86.95;34.63;;;;;;;1.00;100.00;101230.16;3680047;80;98981;-84
2022/12/04 02:29:17;;;;;;;84.52;33.60;;;;;;;1.02;100.00;101226.06;3626706;81;32990;-85
2022/12/04 02:34:28;;;;;;;85.47;32.75;;;;;;;1.03;100.00;101207.88;3625324;80;98807;-84
2022/12/04 02:39:40;;;;;;;87.87;33.73;;;;;;;1.03;100.00;101198.39;3604376;80;28687;-84
2022/12/04 02:44:52;;;;;;;89.20;33.13;;;;;;;1.04;100.00;101201.38;3571927;82;98619;-85
2022/12/04 02:49:58;;;;;;;88.72;32.35;;;;;;;1.05;100.00;101201.06;3583228;82;32971;-86
2022/12/04 02:55:13;;;;;;;80.95;31.15;;;;;;;1.06;100.00;101197.81;3569716;82;99134;-86
2022/12/04 03:00:15;;;;;;;82.47;31.20;;;;;;;1.07;100.00;101203.48;3549671;83;27763;-85
2022/12/04 03:05:21;;;;;;;90.37;32.57;;;;;;;1.07;100.00;101207.02;3552543;81;99033;-86
2022/12/04 03:10:33;;;;;;;84.05;32.28;;;;;;;1.09;100.00;101206.16;3593544;81;28277;-85
2022/12/04 03:15:40;;;;;;;80.67;29.27;;;;;;;1.12;100.00;101206.93;3594447;81;99071;-85
2022/12/04 03:20:42;;;;;;;;;;;;;;;1.14;100.00;101198.48;3607176;81;28696;-84
2022/12/04 03:25:54;;;;;;;84.47;30.80;;;;;;;1.14;100.00;101195.23;3602032;81;84729;-84
2022/12/04 03:31:00;;;;;;;82.25;31.20;;;;;;;1.13;100.00;101192.27;3602810;82;30686;-86
2022/12/04 03:36:38;;;;;;;77.80;29.77;;;;;;;1.13;100.00;101194.98;3607919;80;98703;-85
2022/12/04 03:41:56;;;;;;;76.80;30.33;;;;;;;1.14;100.00;101191.70;3658671;80;27452;-85
2022/12/04 03:47:08;;;;;;;73.30;28.92;;;;;;;1.15;100.00;101184.64;3603959;80;98931;-84
2022/12/04 03:52:23;;;;;;;79.58;30.57;;;;;;;1.18;100.00;101187.30;3648795;80;30771;-84
2022/12/04 03:57:32;;;;;;;77.00;30.65;;;;;;;1.18;100.00;101178.64;3643225;80;98884;-84
2022/12/04 04:02:40;;;;;;;78.17;32.90;;;;;;;1.20;100.00;101182.41;3653084;80;27541;-85
2022/12/04 04:07:46;;;;;;;75.25;28.75;;;;;;;1.24;100.00;101186.12;3639523;80;98572;-83
2022/12/04 04:29:03;;;;;;;78.87;31.17;;;;;;;1.26;100.00;101188.00;3658786;80;26452;-83
2022/12/04 04:34:45;;;;;;;78.87;30.13;;;;;;;1.27;100.00;101177.41;3642688;80;99081;-83
2022/12/04 04:40:12;;;;;;;79.07;33.28;;;;;;;1.28;100.00;101163.56;3630569;80;32145;-82
2022/12/04 04:45:41;;;;;;;81.67;32.47;;;;;;;1.30;100.00;101170.02;3628523;80;99054;-83
2022/12/04 04:50:44;;;;;;;82.27;29.27;;;;;;;1.34;100.00;101173.21;3635854;81;28682;-82
2022/12/04 04:55:45;;;;;;;89.22;34.80;;;;;;;1.34;100.00;101170.50;3634238;81;98670;-84
2022/12/04 05:01:06;;;;;;;87.60;32.73;;;;;;;1.37;100.00;101165.03;3631679;81;25990;-84
2022/12/04 05:06:07;;;;;;;89.20;33.57;;;;;;;1.37;100.00;101172.59;3634643;80;99052;-81
2022/12/04 05:11:12;;;;;;;91.90;34.53;;;;;;;1.39;100.00;101179.09;3645302;81;26502;-83
2022/12/04 05:16:15;;;;;;;87.13;35.00;;;;;;;1.43;100.00;101182.25;3634341;80;99226;-83
2022/12/04 05:21:16;;;;;;;82.50;35.28;;;;;;;1.45;100.00;101180.06;3638941;81;33092;-83
2022/12/04 05:26:17;;;;;;;85.97;32.35;;;;;;;1.47;100.00;101174.32;3631671;80;98929;-84
2022/12/04 05:31:18;;;;;;;87.83;33.00;;;;;;;1.46;100.00;101175.43;3638117;81;26322;-83
2022/12/04 05:36:19;;;;;;;82.17;34.47;;;;;;;1.45;100.00;101174.64;3631185;80;98965;-84
2022/12/04 05:41:19;;;;;;;91.73;36.27;;;;;;;1.46;100.00;101168.11;3685408;80;26867;-83
2022/12/04 05:46:20;;;;;;;82.87;35.13;;;;;;;1.47;100.00;101162.11;3688147;80;98954;-84
2022/12/04 05:51:21;;;;;;;83.53;35.87;;;;;;;1.48;100.00;101166.46;3692406;80;26764;-83
2022/12/04 05:56:22;;;;;;;74.17;30.80;;;;;;;1.50;100.00;101172.38;3687439;80;99053;-84
2022/12/04 06:01:24;;;;;;;80.77;34.23;;;;;;;1.51;100.00;101177.52;3682757;80;33670;-83
2022/12/04 06:06:25;;;;;;;77.47;35.17;;;;;;;1.54;100.00;101191.03;3676856;80;98828;-84
2022/12/04 06:11:33;;;;;;;79.07;34.23;;;;;;;1.52;100.00;101185.90;3688393;80;26064;-83
2022/12/04 06:16:39;;;;;;;90.53;35.97;;;;;;;1.55;100.00;101182.60;3677278;80;98830;-83
2022/12/04 06:21:43;;;;;;;78.47;33.75;;;;;;;1.55;100.00;101185.31;3682920;80;26586;-84
2022/12/04 06:26:44;;;;;;;77.03;30.97;;;;;;;1.55;100.00;101181.78;3683126;80;98970;-84
2022/12/04 06:31:45;;;;;;;73.80;32.10;;;;;;;1.58;100.00;101190.70;3681836;80;26276;-83
2022/12/04 06:36:46;;;;;;;78.30;33.87;;;;;;;1.58;100.00;101190.70;3680175;80;98834;-85
2022/12/04 06:41:47;;;;;;;75.37;32.07;;;;;;;1.59;100.00;101186.30;3686988;80;33386;-83
2022/12/04 06:46:48;;;;;;;78.50;31.07;;;;;;;1.59;100.00;101196.37;3678457;80;98771;-84
2022/12/04 06:51:49;;;;;;;76.83;30.43;;;;;;;1.60;100.00;101191.19;3682633;80;32893;-84
2022/12/04 06:56:49;;;;;;;71.47;31.60;;;;;;;1.62;100.00;101194.40;3675902;80;98765;-84
2022/12/04 07:01:50;;;;;;;75.23;30.90;;;;;;;1.63;100.00;101198.72;3685107;80;32882;-84
2022/12/04 07:06:51;;;;;;;78.23;32.30;;;;;;;1.64;100.00;101193.56;3678344;80;98857;-83
2022/12/04 07:11:53;;;;;;;66.60;30.03;;;;;;;1.64;100.00;101197.64;3693272;80;31071;-83
2022/12/04 07:16:54;;;;;;;80.75;33.98;;;;;;;1.65;100.00;101187.03;3676390;80;98487;-84
2022/12/04 07:21:55;;;;;;;67.77;28.50;;;;;;;1.66;100.00;101185.38;3690334;80;32192;-83
2022/12/04 07:26:56;;;;;;;74.77;31.23;;;;;;;1.67;100.00;101191.59;3673485;80;98740;-84
2022/12/04 07:31:56;;;;;;;69.13;28.33;;;;;;;1.68;100.00;101190.48;3691559;80;31613;-84
2022/12/04 07:36:57;;;;;;;67.27;30.13;;;;;;;1.69;100.00;101194.27;3677260;80;98809;-85
2022/12/04 07:41:58;;;;;;;73.60;29.20;;;;;;;1.72;100.00;101204.53;3639862;80;30002;-84
2022/12/04 07:46:59;;;;;;;67.00;29.53;;;;;;;1.74;100.00;101196.88;3627723;80;98766;-84
2022/12/04 07:51:59;;;;;;;62.93;27.67;;;;;;;1.78;100.00;101212.02;3626013;81;29817;-85
2022/12/04 07:57:00;;;;;;;65.03;31.40;;;;;;;1.79;100.00;101207.65;3628218;80;98624;-84
2022/12/04 08:02:01;;;;;;;62.30;27.50;;;;;;;1.81;100.00;101221.71;3641410;81;34877;-85
2022/12/04 08:07:02;;;;;;;65.73;27.53;;;;;;;1.85;100.00;101219.20;3609807;81;98581;-85
2022/12/04 08:12:03;;;;;;;60.50;27.60;;;;;;;1.87;100.00;101204.80;3634211;81;34970;-86
2022/12/04 08:17:03;;;;;;;74.87;32.97;;;;;;;1.90;100.00;101201.47;3621259;80;98801;-86
2022/12/04 08:22:04;;;;;;;61.87;28.23;;;;;;;1.93;100.00;101185.95;3630339;81;35545;-84
2022/12/04 08:27:05;;;;;;;67.83;30.00;;;;;;;1.93;100.00;101185.95;3632083;80;99033;-84
2022/12/04 08:32:06;;;;;;;76.02;29.42;;;;;;;1.97;100.00;101186.96;3628256;80;34940;-84
2022/12/04 08:37:06;;;;;;;59.57;26.07;;;;;;;2.01;100.00;101184.69;3628516;81;98567;-84
2022/12/04 08:42:07;;;;;;;70.63;31.07;;;;;;;2.04;100.00;101192.78;3666282;80;26128;-84
2022/12/04 08:47:08;;;;;;;67.43;30.10;;;;;;;2.11;100.00;101195.35;3670441;80;98816;-84
2022/12/04 08:52:09;;;;;;;63.80;28.10;;;;;;;2.16;100.00;101199.33;3670571;80;32427;-84
2022/12/04 08:57:10;;;;;;;62.20;28.77;;;;;;;2.20;100.00;101206.31;3661992;80;99048;-84
2022/12/04 09:02:12;;;;;;;63.57;27.47;;;;;;;2.23;100.00;101204.33;3680023;80;32993;-85
2022/12/04 09:07:12;;;;;;;61.90;25.87;;;;;;;2.27;100.00;101207.52;3664004;80;99186;-84
2022/12/04 09:12:13;;;;;;;66.60;30.67;;;;;;;2.30;100.00;101210.18;3679006;80;32452;-84
2022/12/04 09:17:14;;;;;;;60.77;28.70;;;;;;;2.32;100.00;101212.84;3668928;80;98493;-85
2022/12/04 09:22:15;;;;;;;62.08;28.07;;;;;;;2.39;100.00;101216.48;3663171;80;32602;-84
2022/12/04 09:27:16;;;;;;;61.07;28.73;;;;;;;2.44;100.00;101220.46;3663519;78;98471;-85
2022/12/04 09:32:17;;;;;;;65.97;30.07;;;;;;;2.43;100.00;101219.67;3648971;80;26289;-84
2022/12/04 09:37:19;;;;;;;61.70;29.27;;;;;;;2.47;100.00;101230.16;3672057;80;99015;-84
2022/12/04 09:42:31;;;;;;;60.03;27.63;;;;;;;2.56;100.00;101223.48;3630872;80;25932;-84
2022/12/04 09:47:45;;;;;;;59.18;27.87;;;;;;;2.61;100.00;101207.05;3626243;81;98869;-85
2022/12/04 09:53:04;;;;;;;63.33;30.07;;;;;;;2.63;100.00;101206.99;3622786;81;27687;-85
2022/12/04 09:58:13;;;;;;;62.93;27.48;;;;;;;2.67;100.00;101201.20;3622596;81;98509;-83
2022/12/04 10:03:18;;;;;;;64.50;29.33;;;;;;;2.72;100.00;101190.22;3622167;80;99037;-83
2022/12/04 10:08:39;;;;;;;61.25;29.12;;;;;;;2.75;100.00;101178.75;3635309;81;31200;-84
2022/12/04 10:14:04;;;;;;;65.05;28.83;;;;;;;2.75;100.00;101184.19;3630026;80;98904;-84
2022/12/04 10:19:13;;;;;;;72.15;30.32;;;;;;;2.80;100.00;101183.26;3633584;81;32797;-85
2022/12/04 10:24:49;;;;;;;63.10;28.73;;;;;;;2.88;100.00;101173.81;3629594;81;98846;-84
2022/12/04 10:29:55;;;;;;;61.63;34.38;;;;;;;2.91;100.00;101179.19;3632254;81;29582;-85
2022/12/04 10:35:16;;;;;;;78.60;33.70;;;;;;;2.92;100.00;101176.17;3635064;80;98595;-85
2022/12/04 10:40:25;;;;;;;77.65;37.40;;;;;;;2.97;100.00;101166.53;3656453;80;31156;-85
2022/12/04 10:45:26;;;;;;;71.70;39.45;;;;;;;3.01;100.00;101157.98;3681310;80;98952;-85
2022/12/04 10:50:28;;;;;;;71.00;39.83;;;;;;;3.03;100.00;101163.94;3678753;80;25822;-85
2022/12/04 10:55:37;;;;;;;79.60;37.17;;;;;;;3.05;100.00;101154.09;3680622;80;98981;-85
2022/12/04 11:00:37;;;;;;;91.53;50.97;;;;;;;3.08;100.00;101158.38;3683435;80;28705;-84
2022/12/04 11:05:47;;;;;;;90.07;39.53;;;;;;;3.08;100.00;101154.30;3674853;80;99132;-85
2022/12/04 11:11:01;;;;;;;118.53;49.40;;;;;;;3.14;100.00;101153.06;3673910;80;33045;-84
2022/12/04 11:16:05;;;;;;;105.60;39.92;;;;;;;3.15;100.00;101149.77;3673763;80;99089;-86
2022/12/04 11:21:16;;;;;;;93.57;37.30;;;;;;;3.10;100.00;101141.19;3671844;80;27720;-86
2022/12/04 11:26:31;;;;;;;72.27;31.07;;;;;;;3.06;100.00;101137.47;3671245;80;99037;-85
2022/12/04 11:31:33;;;;;;;134.67;45.03;;;;;;;3.09;100.00;101130.61;3674485;80;27719;-86
2022/12/04 11:36:42;;;;;;;100.65;40.30;;;;;;;3.11;100.00;101138.70;3662514;80;98782;-84
2022/12/04 11:41:40;;;;;;;;;;;;;;;3.12;100.00;101150.41;3676899;80;26228;-85
2022/12/04 11:46:47;;;;;;;77.77;35.43;;;;;;;3.16;100.00;101141.87;3679498;80;84414;-85
2022/12/04 11:52:18;;;;;;;104.55;39.25;;;;;;;3.10;100.00;101137.11;3687378;80;28159;-84
2022/12/04 11:57:54;;;;;;;85.90;35.43;;;;;;;3.13;100.00;101145.20;3677791;80;99060;-85
2022/12/04 12:03:20;;;;;;;73.52;33.00;;;;;;;3.17;100.00;101138.83;3688058;80;27382;-85
2022/12/04 12:08:42;;;;;;;79.27;38.02;;;;;;;3.20;100.00;101134.14;3668144;78;33076;-86
2022/12/04 12:14:23;;;;;;;97.97;40.37;;;;;;;3.26;100.00;101122.01;3674964;80;98939;-86
2022/12/04 12:20:05;;;;;;;84.27;38.37;;;;;;;3.20;100.00;101121.89;3688772;80;29339;-86
2022/12/04 12:25:20;;;;;;;113.47;48.75;;;;;;;3.23;100.00;101124.55;3673692;80;98938;-86
2022/12/04 12:30:23;;;;;;;132.93;57.33;;;;;;;3.23;100.00;101115.81;3676430;80;27796;-86
2022/12/04 12:35:37;;;;;;;104.07;41.13;;;;;;;3.22;100.00;101114.22;3664796;80;99142;-85
2022/12/04 12:40:49;;;;;;;106.03;39.40;;;;;;;3.23;100.00;101123.98;3674975;80;29671;-86
2022/12/04 12:46:01;;;;;;;90.95;36.95;;;;;;;3.18;100.00;101119.23;3658515;80;99398;-84
2022/12/04 12:51:23;;;;;;;90.95;36.70;;;;;;;3.17;100.00;101117.06;3654405;79;32895;-86
2022/12/04 12:56:38;;;;;;;88.33;39.30;;;;;;;3.18;100.00;101119.23;3669605;80;99015;-85
2022/12/04 13:02:02;;;;;;;75.22;37.13;;;;;;;3.18;100.00;101114.58;3674503;80;31548;-84
2022/12/04 13:07:20;;;;;;;81.80;36.57;;;;;;;3.12;100.00;101102.23;3670559;80;98790;-84
2022/12/04 13:12:23;;;;;;;72.95;38.50;;;;;;;3.10;100.00;101103.66;3676940;80;31150;-85
2022/12/04 13:17:34;;;;;;;75.27;33.93;;;;;;;3.09;100.00;101092.00;3672414;80;98798;-85
2022/12/04 13:23:16;;;;;;;77.17;35.05;;;;;;;3.07;100.00;101078.46;3682270;80;31748;-84
2022/12/04 13:28:36;;;;;;;70.17;35.03;;;;;;;3.05;100.00;101080.67;3678535;80;56625;-86
2022/12/04 13:34:00;;;;;;;79.40;37.17;;;;;;;3.00;100.00;101070.73;3667768;80;98729;-85
2022/12/04 13:39:26;;;;;;;76.42;33.85;;;;;;;2.95;100.00;101067.36;3673110;80;33016;-87
2022/12/04 13:44:30;;;;;;;77.30;36.17;;;;;;;3.00;100.00;101072.67;3632728;80;98720;-86
2022/12/04 13:49:36;;;;;;;70.00;34.78;;;;;;;2.93;100.00;101065.48;3629964;80;33064;-86
2022/12/04 13:54:37;;;;;;;69.97;32.78;;;;;;;2.97;100.00;101080.89;3631382;80;98895;-85
2022/12/04 13:59:40;;;;;;;79.67;34.57;;;;;;;2.97;100.00;101090.95;3636332;80;26435;-85
2022/12/04 14:04:58;;;;;;;75.75;35.48;;;;;;;2.95;100.00;101089.11;3631580;81;98957;-85
2022/12/04 14:10:17;;;;;;;68.90;31.85;;;;;;;2.92;100.00;101094.61;3632546;81;31581;-85
2022/12/04 14:15:25;;;;;;;67.58;32.10;;;;;;;2.91;100.00;101093.02;3630578;80;98845;-87
2022/12/04 14:20:32;;;;;;;68.50;33.00;;;;;;;2.92;100.00;101099.23;3639927;80;29622;-85
2022/12/04 14:25:38;;;;;;;75.78;34.70;;;;;;;2.91;100.00;101100.34;3626020;80;98721;-86
2022/12/04 14:30:40;;;;;;;74.97;35.95;;;;;;;2.88;100.00;101096.88;3643308;81;32405;-86
2022/12/04 14:35:58;;;;;;;77.15;34.58;;;;;;;2.87;100.00;101099.36;3609718;81;99117;-85
2022/12/04 14:41:00;;;;;;;71.35;35.15;;;;;;;2.84;100.00;101094.55;3638763;80;32554;-86
2022/12/04 14:46:21;;;;;;;77.87;35.00;;;;;;;2.81;100.00;101091.08;3640151;80;98565;-85
2022/12/04 14:51:57;;;;;;;84.30;38.08;;;;;;;2.81;100.00;101092.44;3643780;80;30170;-86
2022/12/04 14:57:08;;;;;;;81.75;38.23;;;;;;;2.81;100.00;101101.41;3639482;80;98956;-86
2022/12/04 15:02:19;;;;;;;70.37;34.92;;;;;;;2.79;100.00;101093.31;3646899;80;32574;-85
2022/12/04 15:07:27;;;;;;;71.20;34.65;;;;;;;2.80;100.00;101094.92;3637336;80;98562;-84
2022/12/04 15:12:34;;;;;;;81.08;37.42;;;;;;;2.75;100.00;101101.29;3650511;80;33115;-86
2022/12/04 15:17:35;;;;;;;75.03;36.73;;;;;;;2.74;100.00;101092.86;3643781;80;98817;-86
2022/12/04 15:22:36;;;;;;;74.07;35.37;;;;;;;2.72;100.00;101104.61;3641260;80;26489;-85
2022/12/04 15:27:37;;;;;;;80.53;37.33;;;;;;;2.72;100.00;101094.28;3637052;80;98815;-84
2022/12/04 15:32:37;;;;;;;85.20;37.50;;;;;;;2.71;100.00;101092.68;3652684;80;26275;-85
2022/12/04 15:37:40;;;;;;;75.93;32.17;;;;;;;2.68;100.00;101102.83;3649973;80;98871;-83
2022/12/04 15:42:40;;;;;;;81.07;38.60;;;;;;;2.63;100.00;101102.95;3664910;79;25824;-86
2022/12/04 15:47:47;;;;;;;79.37;36.43;;;;;;;2.63;100.00;101092.08;3683127;80;98624;-85
2022/12/04 15:53:06;;;;;;;;;;;;;;;2.61;100.00;101095.09;3691686;80;27388;-87
2022/12/04 15:58:32;;;;;;;76.00;36.97;;;;;;;2.60;100.00;101088.06;3675996;80;84492;-85
2022/12/04 16:03:50;;;;;;;76.67;39.92;;;;;;;2.61;100.00;101116.02;3680675;80;99115;-85
2022/12/04 16:09:00;;;;;;;77.37;34.00;;;;;;;2.57;100.00;101117.19;3684921;80;30585;-84
2022/12/04 16:14:14;;;;;;;77.20;34.88;;;;;;;2.57;100.00;101123.98;3680600;80;98591;-84
2022/12/04 16:19:40;;;;;;;73.40;34.05;;;;;;;2.58;100.00;101118.80;3687019;80;30614;-85
2022/12/04 16:24:41;;;;;;;76.60;34.87;;;;;;;2.55;100.00;101112.63;3684210;80;98678;-84
2022/12/04 16:29:44;;;;;;;76.63;36.40;;;;;;;2.54;100.00;101105.59;3684790;80;25792;-84
2022/12/04 16:34:45;;;;;;;79.50;35.80;;;;;;;2.55;100.00;101107.20;3677607;80;98800;-86
2022/12/04 16:39:47;;;;;;;84.92;38.17;;;;;;;2.54;100.00;101120.54;3686059;80;32364;-84
2022/12/04 16:44:49;;;;;;;83.72;38.48;;;;;;;2.53;100.00;101125.73;3640061;80;98880;-84
2022/12/04 16:49:52;;;;;;;79.22;34.80;;;;;;;2.51;100.00;101126.57;3635490;80;32538;-84
2022/12/04 16:54:52;;;;;;;74.53;33.58;;;;;;;2.47;100.00;101109.27;3630199;80;98709;-83
2022/12/04 16:59:53;;;;;;;86.73;37.30;;;;;;;2.49;100.00;101118.48;3635282;80;26531;-85
2022/12/04 17:04:54;;;;;;;78.93;36.07;;;;;;;2.51;100.00;101120.35;3632425;80;98840;-84
2022/12/04 17:09:55;;;;;;;85.47;38.60;;;;;;;2.50;100.00;101129.59;3641031;80;25875;-85
2022/12/04 17:14:55;;;;;;;88.53;38.97;;;;;;;2.49;100.00;101125.27;3627249;81;98885;-84
2022/12/04 17:19:56;;;;;;;75.50;36.07;;;;;;;2.52;100.00;101119.23;3632447;80;26276;-85
2022/12/04 17:24:57;;;;;;;72.30;33.67;;;;;;;2.49;100.00;101112.50;3627842;81;99177;-84
2022/12/04 17:29:58;;;;;;;77.53;35.53;;;;;;;2.48;100.00;101116.33;3634931;81;33622;-83
2022/12/04 17:35:00;;;;;;;81.97;40.75;;;;;;;2.47;100.00;101113.92;3626590;80;98798;-84
2022/12/04 17:40:01;;;;;;;70.60;34.47;;;;;;;2.46;100.00;101113.67;3640482;80;26424;-85
2022/12/04 17:45:03;;;;;;;63.77;31.40;;;;;;;2.45;100.00;101119.65;3630285;80;98650;-84
2022/12/04 17:50:06;;;;;;;77.77;35.57;;;;;;;2.47;100.00;101118.78;3637853;81;26284;-84
2022/12/04 17:55:07;;;;;;;74.83;34.53;;;;;;;2.48;100.00;101119.05;3623271;80;99122;-84
2022/12/04 18:00:09;;;;;;;68.77;31.80;;;;;;;2.47;100.00;101124.21;3638577;80;29695;-84
2022/12/04 18:05:10;;;;;;;72.22;35.43;;;;;;;2.48;100.00;101132.63;3626671;80;98915;-88
2022/12/04 18:10:11;;;;;;;77.47;35.67;;;;;;;2.47;100.00;101135.08;3638956;81;25836;-85
2022/12/04 18:15:12;;;;;;;91.50;40.20;;;;;;;2.44;100.00;101138.42;3630646;80;98750;-84
2022/12/04 18:20:13;;;;;;;83.60;38.17;;;;;;;2.45;100.00;101130.52;3633050;81;33953;-84
2022/12/04 18:25:14;;;;;;;81.83;36.93;;;;;;;2.44;100.00;101127.55;3626549;80;98687;-84
2022/12/04 18:30:15;;;;;;;79.07;36.27;;;;;;;2.46;100.00;101134.05;3637221;80;32868;-84
2022/12/04 18:35:16;;;;;;;84.47;39.80;;;;;;;2.45;100.00;101128.34;3626434;80;98770;-85
2022/12/04 18:40:17;;;;;;;80.17;33.60;;;;;;;2.42;100.00;101128.42;3632736;80;32948;-84
2022/12/04 18:45:17;;;;;;;78.40;35.60;;;;;;;2.46;100.00;101135.41;3639339;80;98921;-84
2022/12/04 18:50:18;;;;;;;82.33;38.28;;;;;;;2.42;100.00;101139.30;3613262;81;32731;-85
2022/12/04 18:55:19;;;;;;;71.50;31.40;;;;;;;2.39;100.00;101143.15;3611354;80;98939;-84
2022/12/04 19:00:20;;;;;;;72.47;31.87;;;;;;;2.37;100.00;101141.30;3610628;80;31615;-85
2022/12/04 19:05:21;;;;;;;88.73;40.13;;;;;;;2.32;100.00;101149.02;3613218;80;99264;-85
2022/12/04 19:10:22;;;;;;;82.63;36.40;;;;;;;2.31;100.00;101152.03;3623550;80;31663;-83
2022/12/04 19:15:22;;;;;;;87.90;34.77;;;;;;;2.30;100.00;101160.72;3611237;80;99090;-84
2022/12/04 19:20:23;;;;;;;105.17;53.57;;;;;;;2.28;100.00;101156.16;3610468;81;31738;-83
2022/12/04 19:25:24;;;;;;;85.20;37.42;;;;;;;2.30;100.00;101162.65;3602142;80;99280;-84
2022/12/04 19:30:25;;;;;;;86.43;36.60;;;;;;;2.30;100.00;101165.37;3608933;81;28817;-84
2022/12/04 19:35:26;;;;;;;88.47;36.30;;;;;;;2.25;100.00;101160.83;3627239;80;99010;-83
2022/12/04 19:40:28;;;;;;;90.03;39.53;;;;;;;2.23;100.00;101161.70;3660921;80;26921;-85
2022/12/04 19:45:28;;;;;;;73.87;34.03;;;;;;;2.23;100.00;101164.41;3623157;80;98941;-84
2022/12/04 19:50:31;;;;;;;90.23;41.13;;;;;;;2.23;100.00;101171.74;3640664;80;34955;-84
2022/12/04 19:55:35;;;;;;;76.00;32.87;;;;;;;2.21;100.00;101169.36;3615332;80;98945;-84
2022/12/04 20:00:36;;;;;;;94.53;42.73;;;;;;;2.24;100.00;101178.81;3602581;80;27927;-85
2022/12/04 20:05:36;;;;;;;75.53;30.73;;;;;;;2.21;100.00;101171.25;3599842;80;98735;-85
2022/12/04 20:10:37;;;;;;;83.80;35.47;;;;;;;2.21;100.00;101157.13;3593683;80;34848;-84
2022/12/04 20:15:39;;;;;;;75.63;30.00;;;;;;;2.20;100.00;101158.79;3587759;80;99166;-88
2022/12/04 20:20:43;;;;;;;78.30;32.70;;;;;;;2.18;100.00;101152.87;3588165;82;35359;-84
2022/12/04 20:25:43;;;;;;;76.47;31.53;;;;;;;2.16;100.00;101150.45;3595306;81;99096;-84
2022/12/04 20:30:44;;;;;;;79.80;33.60;;;;;;;2.16;100.00;101150.45;3600350;81;35347;-83
2022/12/04 20:35:45;;;;;;;74.60;31.27;;;;;;;2.18;100.00;101149.58;3598095;81;98840;-87
2022/12/04 20:40:46;;;;;;;72.67;29.60;;;;;;;2.18;100.00;101142.00;3608551;81;36057;-86
2022/12/04 20:45:47;;;;;;;86.03;32.70;;;;;;;2.13;100.00;101138.04;3637375;80;99000;-83
2022/12/04 20:50:48;;;;;;;68.47;27.43;;;;;;;2.07;100.00;101141.39;3665671;80;34799;-84
2022/12/04 20:55:55;;;;;;;71.37;27.43;;;;;;;2.06;100.00;101145.23;3662712;80;98922;-85
2022/12/04 21:00:56;;;;;;;89.25;37.90;;;;;;;2.08;100.00;101136.78;3655746;80;31442;-83
2022/12/04 21:05:57;;;;;;;163.90;75.53;;;;;;;2.07;100.00;101141.39;3656599;80;98863;-83
2022/12/04 21:10:57;;;;;;;271.13;118.67;;;;;;;2.08;100.00;101131.36;3657547;80;34838;-86
2022/12/04 21:16:02;;;;;;;197.73;60.53;;;;;;;2.09;100.00;101139.74;3653704;80;99208;-85
2022/12/04 21:21:03;;;;;;;126.73;42.43;;;;;;;2.05;100.00;101141.45;3654767;80;27883;-85
2022/12/04 21:26:05;;;;;;;204.87;82.95;;;;;;;2.02;100.00;101124.42;3649042;80;98848;-85
2022/12/04 21:31:05;;;;;;;133.07;41.50;;;;;;;2.02;100.00;101127.14;3659582;80;34885;-85
2022/12/04 21:36:08;;;;;;;102.67;34.67;;;;;;;1.99;100.00;101123.66;3655401;79;98974;-85
2022/12/04 21:42:28;;;;;;;101.60;38.67;;;;;;;1.98;100.00;101110.63;3669565;80;29866;-84
2022/12/04 21:46:13;;;;;;;369.67;123.20;;;;;;;1.96;100.00;101116.11;3607382;80;99124;-84
2022/12/04 21:51:13;;;;;;;133.57;45.00;;;;;;;1.97;100.00;101121.81;3609848;81;34813;-85
2022/12/04 21:56:15;;;;;;;143.30;46.93;;;;;;;1.96;100.00;101112.86;3619472;80;99055;-86
2022/12/04 22:01:17;;;;;;;126.63;45.17;;;;;;;1.96;100.00;101122.36;3644153;80;34850;-89
2022/12/04 22:06:19;;;;;;;113.17;40.80;;;;;;;1.98;100.00;101109.27;3633000;80;99315;-88
2022/12/04 22:11:21;;;;;;;181.90;65.43;;;;;;;1.97;100.00;101105.53;3644681;80;26216;-86
2022/12/04 22:16:23;;;;;;;156.13;52.00;;;;;;;1.95;100.00;101097.68;3637786;80;98804;-86
2022/12/04 22:21:25;;;;;;;118.75;38.45;;;;;;;1.94;100.00;101114.27;3637777;80;29786;-86
2022/12/04 22:26:28;;;;;;;102.55;39.10;;;;;;;1.94;100.00;101116.44;3588283;80;99232;-86
2022/12/04 22:31:30;;;;;;;89.67;32.27;;;;;;;1.94;100.00;101120.51;3589053;81;26998;-83
2022/12/04 22:36:32;;;;;;;82.43;32.63;;;;;;;1.96;100.00;101121.54;3582634;82;98801;-84
2022/12/04 22:41:34;;;;;;;168.57;69.97;;;;;;;1.95;100.00;101109.08;3583899;80;26966;-84
2022/12/04 22:46:35;;;;;;;99.33;36.50;;;;;;;1.92;100.00;101116.48;3584989;81;98735;-83
2022/12/04 22:51:35;;;;;;;110.40;37.53;;;;;;;1.93;100.00;101105.88;3590004;82;34929;-84
2022/12/04 22:56:36;;;;;;;134.30;46.67;;;;;;;1.92;100.00;101092.06;3584199;82;98671;-85
2022/12/04 23:01:37;;;;;;;84.77;29.67;;;;;;;1.89;100.00;101086.69;3594249;81;34883;-88
2022/12/04 23:06:38;;;;;;;116.90;40.10;;;;;;;1.89;100.00;101082.61;3576170;81;98756;-84
2022/12/04 23:11:40;;;;;;;114.67;50.40;;;;;;;1.89;100.00;101081.25;3578986;81;35308;-87
2022/12/04 23:16:41;;;;;;;118.95;38.20;;;;;;;1.86;100.00;101073.70;3577962;81;98713;-85
2022/12/04 23:21:43;;;;;;;100.30;36.77;;;;;;;1.87;100.00;101078.59;3587139;81;35410;-85
2022/12/04 23:26:46;;;;;;;79.87;30.07;;;;;;;1.84;100.00;101081.90;3592194;80;98948;-85